Time;durP1;ratioP1;P1;durP2;ratioP2;P2;SDS_P1;SDS_P2;PMS_P1;PMS_P2;Temp;Humidity;BMP_temperature;BMP_pressure;BME280_temperature;BME280_humidity;BME280_pressure;Samples;Min_cycle;Max_cycle;Signal;HPM_P1;HPM_P2
2022/05/06 00:00:16;;;;;;;;;22.00;18.25;;;;;14.51;61.29;102313.84;5026761;28;45439;-69
2022/05/06 00:02:42;;;;;;;;;22.33;18.33;;;;;14.58;60.48;102309.56;5028796;28;46391;-69
2022/05/06 00:05:09;;;;;;;;;25.00;21.67;;;;;14.50;61.72;102318.44;5030284;28;45433;-70
2022/05/06 00:07:34;;;;;;;;;23.00;18.67;;;;;14.55;60.94;102318.91;5027071;28;45478;-70
2022/05/06 00:10:01;;;;;;;;;22.50;20.00;;;;;14.51;61.76;102317.44;5008404;28;45256;-70
2022/05/06 00:12:27;;;;;;;;;24.00;21.50;;;;;14.39;61.93;102321.28;5023041;28;45599;-70
2022/05/06 00:14:53;;;;;;;;;21.00;19.67;;;;;14.48;61.87;102317.72;5027412;28;45382;-70
2022/05/06 00:17:18;;;;;;;;;22.00;21.75;;;;;14.45;61.79;102317.13;5029261;28;45360;-70
2022/05/06 00:19:44;;;;;;;;;27.25;24.00;;;;;14.55;61.83;102316.16;5038077;28;45292;-70
2022/05/06 00:22:10;;;;;;;;;24.00;23.75;;;;;14.53;61.49;102326.41;5023396;28;47200;-70
2022/05/06 00:24:37;;;;;;;;;25.75;23.50;;;;;14.53;61.81;102311.84;5036585;28;45449;-70
2022/05/06 00:27:03;;;;;;;;;19.33;19.33;;;;;14.58;61.92;102326.84;5037550;28;45283;-71
2022/05/06 00:29:28;;;;;;;;;29.75;23.25;;;;;14.56;62.06;102317.91;5040755;28;45289;-70
2022/05/06 00:31:54;;;;;;;;;19.75;18.75;;;;;14.68;61.37;102321.44;5017828;28;47375;-70
2022/05/06 00:34:19;;;;;;;;;24.00;22.25;;;;;14.61;61.74;102307.41;5022880;28;47567;-70
2022/05/06 00:36:45;;;;;;;;;24.25;24.00;;;;;14.64;61.75;102315.34;5034343;28;45443;-70
2022/05/06 00:39:11;;;;;;;;;29.75;25.00;;;;;14.70;61.14;102320.25;5027681;28;45554;-70
2022/05/06 00:41:37;;;;;;;;;25.00;23.00;;;;;14.64;61.71;102315.34;5036021;28;45443;-70
2022/05/06 00:44:05;;;;;;;;;26.33;19.67;;;;;14.68;60.88;102314.06;5027627;28;45307;-70
2022/05/06 00:46:31;;;;;;;;;26.75;24.00;;;;;14.64;61.43;102319.94;5034961;28;45375;-70
2022/05/06 00:48:56;;;;;;;;;27.00;21.25;;;;;14.50;62.05;102315.72;5026819;28;45563;-70
2022/05/06 00:51:23;;;;;;;;;27.00;24.00;;;;;14.53;62.35;102325.53;5033099;28;45617;-70
2022/05/06 00:53:50;;;;;;;;;29.50;25.50;;;;;14.52;61.66;102308.25;5025308;28;45472;-70
2022/05/06 00:56:17;;;;;;;;;21.33;19.67;;;;;14.41;61.81;102309.19;5018359;28;45256;-70
2022/05/06 00:58:44;;;;;;;;;28.25;26.00;;;;;14.38;62.61;102314.94;5024820;28;45759;-70
2022/05/06 01:01:10;;;;;;;;;27.00;22.50;;;;;14.44;62.21;102324.47;5029944;28;45394;-70
2022/05/06 01:03:36;;;;;;;;;25.00;20.33;;;;;14.45;62.22;102315.25;5023357;28;45437;-70
2022/05/06 01:06:10;;;;;;;;;25.25;22.25;;;;;14.50;61.74;102312.97;5015525;28;45545;-70
2022/05/06 01:08:37;;;;;;;;;23.00;20.50;;;;;14.49;61.64;102304.91;5023155;28;45490;-70
2022/05/06 01:11:03;;;;;;;;;26.50;22.75;;;;;14.51;61.59;102309.25;5032802;28;45400;-70
2022/05/06 01:13:28;;;;;;;;;24.50;20.75;;;;;14.53;61.24;102303.66;5022392;28;45462;-70
2022/05/06 01:15:55;;;;;;;;;31.25;27.00;;;;;14.51;62.18;102313.84;5033441;28;45477;-70
2022/05/06 01:18:21;;;;;;;;;26.75;25.25;;;;;14.35;62.85;102308.81;5004563;28;45317;-71
2022/05/06 01:20:52;;;;;;;;;27.50;24.00;;;;;14.28;62.99;102318.56;5036357;28;46135;-70
2022/05/06 01:23:19;;;;;;;;;29.25;26.25;;;;;14.19;63.15;102319.38;5029792;28;45441;-70
2022/05/06 01:25:47;;;;;;;;;31.00;26.75;;;;;14.09;63.62;102302.06;5030329;28;45517;-70
2022/05/06 01:28:13;;;;;;;;;27.00;25.50;;;;;14.16;63.39;102314.19;5024045;28;45443;-70
2022/05/06 01:30:42;;;;;;;;;30.00;24.25;;;;;14.21;63.33;102317.38;5033139;28;46117;-69
2022/05/06 01:33:09;;;;;;;;;21.33;19.67;;;;;14.21;62.63;102306.44;5037335;28;45339;-70
2022/05/06 01:35:42;;;;;;;;;25.00;21.75;;;;;14.18;63.21;102317.63;5030195;28;45395;-69
2022/05/06 01:38:10;;;;;;;;;25.75;24.50;;;;;14.17;63.16;102315.91;5025913;28;45415;-70
2022/05/06 01:40:43;;;;;;;;;26.25;25.00;;;;;14.09;63.54;102316.59;5030201;28;45466;-69
2022/05/06 01:43:13;;;;;;;;;24.75;22.25;;;;;14.06;63.68;102313.22;5024075;28;46129;-69
2022/05/06 01:45:40;;;;;;;;;30.75;26.50;;;;;14.03;63.19;102309.75;5014018;28;45331;-70
2022/05/06 01:48:07;;;;;;;;;26.50;22.25;;;;;13.98;63.59;102306.56;5019172;28;45590;-70
2022/05/06 01:50:36;;;;;;;;;27.25;23.50;;;;;13.98;63.62;102311.16;5033904;28;46248;-70
2022/05/06 01:53:02;;;;;;;;;25.00;22.75;;;;;13.91;63.73;102309.97;5033283;28;45591;-70
2022/05/06 01:55:27;;;;;;;;;29.25;23.25;;;;;13.89;64.00;102301.88;5030117;28;45351;-69
2022/05/06 01:57:53;;;;;;;;;28.50;22.50;;;;;13.92;63.54;102307.09;5014876;28;45525;-70
2022/05/06 02:00:18;;;;;;;;;26.33;21.00;;;;;13.83;64.02;102312.47;5028706;28;46726;-69
2022/05/06 02:02:44;;;;;;;;;25.75;25.25;;;;;13.82;64.60;102328.00;5013329;28;46104;-70
2022/05/06 02:05:19;;;;;;;;;32.25;27.00;;;;;13.80;64.53;102319.09;5028010;28;45312;-70
2022/05/06 02:07:49;;;;;;;;;27.75;24.00;;;;;13.83;63.99;102321.53;5030694;28;45637;-69
2022/05/06 02:10:19;;;;;;;;;25.25;25.25;;;;;13.82;64.42;102314.34;5034757;28;46027;-69
2022/05/06 02:12:47;;;;;;;;;29.00;26.25;;;;;13.76;64.29;102314.88;5027696;28;45319;-69
2022/05/06 02:15:17;;;;;;;;;33.00;23.75;;;;;13.75;64.64;102315.88;5011258;28;45446;-70
2022/05/06 02:17:42;;;;;;;;;28.25;23.75;;;;;13.69;64.68;102318.25;5025377;28;45376;-69
2022/05/06 02:20:10;;;;;;;;;33.75;28.50;;;;;13.60;65.28;102314.44;5034664;28;45391;-69
2022/05/06 02:22:37;;;;;;;;;33.00;26.00;;;;;13.54;65.58;102312.22;5031787;28;45418;-70
2022/05/06 02:25:09;;;;;;;;;31.25;23.00;;;;;13.52;65.25;102309.63;5031195;28;45428;-70
2022/05/06 02:27:36;;;;;;;;;28.00;27.00;;;;;13.57;64.96;102311.97;5039839;28;45628;-70
2022/05/06 02:35:29;;;;;;;;;28.50;26.00;;;;;13.42;65.88;102316.00;5029438;28;45410;-69
2022/05/06 02:37:55;;;;;;;;;24.00;22.00;;;;;13.38;65.82;102301.72;5018031;28;45457;-70
2022/05/06 02:40:20;;;;;;;;;27.00;27.00;;;;;13.41;65.73;102306.06;5032972;28;45317;-69
2022/05/06 02:42:46;;;;;;;;;28.50;26.25;;;;;13.37;65.94;102299.16;5016714;28;45204;-69
2022/05/06 02:45:11;;;;;;;;;28.75;24.00;;;;;13.35;66.10;102309.31;5030023;28;45477;-70
2022/05/06 02:47:37;;;;;;;;;29.25;26.75;;;;;13.34;65.91;102310.31;5034579;28;45208;-69
2022/05/06 02:50:03;;;;;;;;;32.00;26.50;;;;;13.32;66.09;102309.56;5030309;28;45512;-70
2022/05/06 02:52:28;;;;;;;;;29.50;24.00;;;;;13.25;66.17;102312.81;5033119;28;45337;-70
2022/05/06 02:54:53;;;;;;;;;28.00;25.00;;;;;13.25;66.37;102323.75;5029325;28;45308;-69
2022/05/06 02:57:19;;;;;;;;;28.50;23.25;;;;;13.19;66.43;102312.47;5032450;28;45331;-70
2022/05/06 02:59:44;;;;;;;;;24.75;23.75;;;;;13.19;66.08;102313.34;5028333;28;46315;-69
2022/05/06 03:02:09;;;;;;;;;32.00;32.00;;;;;13.19;66.66;102318.78;5026434;28;45414;-69
2022/05/06 03:04:36;;;;;;;;;27.75;24.25;;;;;13.08;66.55;102310.56;5038149;28;45422;-69
2022/05/06 03:07:06;;;;;;;;;34.00;30.25;;;;;13.13;66.65;102318.44;5042824;28;45462;-69
2022/05/06 03:09:32;;;;;;;;;25.25;23.50;;;;;13.07;66.81;102308.88;5038046;28;45326;-69
2022/05/06 03:11:58;;;;;;;;;30.75;28.75;;;;;13.08;66.98;102324.22;5014912;28;45829;-70
2022/05/06 03:14:24;;;;;;;;;28.75;27.00;;;;;13.05;66.80;102313.56;5026257;28;45354;-69
2022/05/06 03:16:49;;;;;;;;;33.50;30.25;;;;;12.95;67.08;102318.03;5033050;28;45566;-69
2022/05/06 03:19:14;;;;;;;;;34.50;30.00;;;;;12.90;67.50;102319.41;5006888;28;46894;-68
2022/05/06 03:21:40;;;;;;;;;37.00;32.00;;;;;12.80;68.52;102327.47;5035120;28;45371;-70
2022/05/06 03:24:05;;;;;;;;;34.75;28.75;;;;;12.75;68.36;102318.81;5026502;28;45311;-70
2022/05/06 03:26:31;;;;;;;;;33.50;30.00;;;;;12.69;68.43;102319.31;5035252;28;45608;-70
2022/05/06 03:28:57;;;;;;;;;30.75;27.00;;;;;12.77;67.62;102320.44;5041593;28;45655;-71
2022/05/06 03:31:25;;;;;;;;;33.25;28.50;;;;;12.82;67.50;102317.31;5012380;28;45335;-70
2022/05/06 03:33:52;;;;;;;;;28.25;24.75;;;;;12.86;67.34;102326.97;5023847;28;45319;-70
2022/05/06 03:36:18;;;;;;;;;39.50;29.75;;;;;12.79;67.27;102320.28;5033198;28;45434;-70
2022/05/06 03:38:43;;;;;;;;;35.50;32.50;;;;;12.77;67.81;102325.00;5029317;28;46110;-70
2022/05/06 03:41:08;;;;;;;;;40.75;34.00;;;;;12.74;67.30;102322.53;5016897;28;45386;-70
2022/05/06 03:43:34;;;;;;;;;32.00;29.75;;;;;12.76;67.80;102331.44;5025298;28;45429;-70
2022/05/06 03:45:59;;;;;;;;;29.00;28.00;;;;;12.75;67.15;102327.00;5019742;28;45581;-70
2022/05/06 03:48:24;;;;;;;;;31.25;28.00;;;;;12.67;67.42;102322.16;5029191;28;45335;-70
2022/05/06 03:53:35;;;;;;;;;37.50;33.25;;;;;12.60;67.90;102326.38;5027533;28;45395;-70
2022/05/06 03:56:01;;;;;;;;;30.50;28.50;;;;;12.58;68.17;102319.28;5031572;28;45814;-70
2022/05/06 03:58:26;;;;;;;;;39.00;33.25;;;;;12.56;68.06;102329.47;5027490;28;45450;-69
2022/05/06 04:00:52;;;;;;;;;33.25;30.50;;;;;12.52;68.08;102326.09;5028566;28;45390;-69
2022/05/06 04:03:18;;;;;;;;;30.50;28.25;;;;;12.51;68.34;102338.00;5027984;28;45241;-69
2022/05/06 04:05:43;;;;;;;;;35.50;31.50;;;;;12.45;68.64;102342.09;5027174;28;45299;-70
2022/05/06 04:08:09;;;;;;;;;35.75;32.00;;;;;12.39;68.50;102328.94;5027773;28;45422;-69
2022/05/06 04:10:34;;;;;;;;;31.75;29.50;;;;;12.45;68.13;102331.19;5033405;28;45207;-70
2022/05/06 04:12:59;;;;;;;;;35.50;30.50;;;;;12.44;68.63;102337.63;5023770;28;45466;-70
2022/05/06 04:15:25;;;;;;;;;29.75;29.25;;;;;12.38;68.81;102329.06;5032488;28;45413;-70
2022/05/06 04:17:50;;;;;;;;;33.50;31.75;;;;;12.36;69.05;102340.09;5024911;28;46636;-70
2022/05/06 04:25:44;;;;;;;;;28.00;25.25;;;;;12.38;68.88;102350.88;5029854;28;45534;-70
2022/05/06 04:28:09;;;;;;;;;37.00;33.25;;;;;12.40;68.57;102357.06;5037903;28;45982;-69
2022/05/06 04:30:35;;;;;;;;;39.50;34.25;;;;;12.38;68.62;102354.47;5030984;28;45192;-69
2022/05/06 04:33:01;;;;;;;;;32.75;27.50;;;;;12.37;68.54;102341.81;5034378;28;45585;-69
2022/05/06 04:35:26;;;;;;;;;30.25;29.25;;;;;12.33;69.13;102351.25;5031638;28;45209;-69
2022/05/06 04:37:52;;;;;;;;;38.25;33.00;;;;;12.28;69.25;102342.53;5015214;28;47140;-69
2022/05/06 04:40:18;;;;;;;;;32.25;29.50;;;;;12.35;68.76;102353.81;5027519;28;45381;-69
2022/05/06 04:42:45;;;;;;;;;35.50;31.75;;;;;12.28;69.36;102353.44;5004882;28;45407;-70
2022/05/06 04:45:10;;;;;;;;;34.75;31.00;;;;;12.35;68.92;102360.16;5035915;28;45514;-69
2022/05/06 04:47:37;;;;;;;;;30.00;27.25;;;;;12.38;69.01;102365.38;5030950;28;46091;-69
2022/05/06 04:50:04;;;;;;;;;40.25;32.75;;;;;12.47;68.44;102364.66;5027713;28;45465;-70
2022/05/06 04:52:30;;;;;;;;;38.25;30.00;;;;;12.48;68.48;102363.66;5022355;28;45188;-69
2022/05/06 04:54:55;;;;;;;;;35.75;29.75;;;;;12.49;68.34;102361.81;5027085;28;45530;-69
2022/05/06 04:57:20;;;;;;;;;33.00;30.50;;;;;12.49;68.24;102362.66;5010767;28;46537;-70
2022/05/06 04:59:47;;;;;;;;;44.50;32.75;;;;;12.53;68.39;102371.47;5006660;28;45335;-71
2022/05/06 05:02:15;;;;;;;;;26.25;23.00;;;;;12.51;68.50;102370.72;5012946;28;45393;-70
2022/05/06 05:04:42;;;;;;;;;28.50;28.50;;;;;12.49;69.00;102362.66;5028858;28;45549;-70
2022/05/06 05:07:07;;;;;;;;;36.00;33.50;;;;;12.54;68.62;102369.63;5033901;28;45387;-70
2022/05/06 05:09:33;;;;;;;;;31.50;24.75;;;;;12.59;68.55;102378.28;5027983;28;45253;-70
2022/05/06 05:11:58;;;;;;;;;19.00;19.00;;;;;12.61;68.69;102371.72;5034437;28;45379;-70
2022/05/06 05:14:23;;;;;;;;;34.50;31.50;;;;;12.69;67.84;102374.72;5028220;28;45248;-70
2022/05/06 05:16:50;;;;;;;;;36.25;33.75;;;;;12.74;67.70;102371.59;5015421;28;46958;-70
2022/05/06 05:19:16;;;;;;;;;35.00;33.00;;;;;12.83;67.65;102374.47;5028142;28;45327;-70
2022/05/06 05:21:42;;;;;;;;;42.50;31.50;;;;;12.93;67.20;102373.75;5019087;28;45391;-70
2022/05/06 05:24:07;;;;;;;;;35.75;30.75;;;;;13.32;67.08;102365.03;5028114;28;45395;-70
2022/05/06 05:26:33;;;;;;;;;36.75;32.25;;;;;13.48;65.37;102370.09;5036390;28;45541;-70
2022/05/06 05:28:59;;;;;;;;;38.25;35.25;;;;;13.37;65.53;102370.13;5024719;28;45540;-70
2022/05/06 05:31:24;;;;;;;;;44.75;34.25;;;;;13.27;65.84;102370.03;5035465;28;45314;-70
2022/05/06 05:33:52;;;;;;;;;38.50;29.50;;;;;13.34;65.52;102378.56;5032050;28;45415;-70
2022/05/06 05:36:17;;;;;;;;;39.25;34.25;;;;;13.37;65.78;102375.59;5034249;28;45584;-70
2022/05/06 05:38:42;;;;;;;;;42.00;35.25;;;;;13.82;64.65;102377.19;5024763;28;45593;-70
2022/05/06 05:41:08;;;;;;;;;37.00;32.25;;;;;14.78;61.72;102377.91;5034179;28;45459;-70
2022/05/06 05:49:02;;;;;;;;;38.50;34.50;;;;;14.23;61.68;102381.84;5028058;28;45528;-70
2022/05/06 05:51:27;;;;;;;;;34.75;33.00;;;;;14.12;62.44;102390.09;5034583;28;45267;-70
2022/05/06 05:53:53;;;;;;;;;39.75;36.00;;;;;13.86;62.79;102388.72;5027280;28;45245;-70
2022/05/06 05:56:18;;;;;;;;;39.25;36.00;;;;;13.78;63.57;102386.66;5033522;28;45525;-70
2022/05/06 05:58:44;;;;;;;;;38.50;32.00;;;;;13.93;63.52;102389.94;5026452;28;45410;-70
2022/05/06 06:01:11;;;;;;;;;37.75;31.25;;;;;14.17;62.81;102392.47;5031470;28;45469;-69
2022/05/06 06:03:37;;;;;;;;;39.75;33.00;;;;;14.17;62.50;102378.78;5026245;28;45266;-68
2022/05/06 06:06:03;;;;;;;;;48.00;35.25;;;;;14.16;62.59;102386.13;5035496;28;46099;-71
2022/05/06 06:08:29;;;;;;;;;43.50;35.75;;;;;14.21;62.57;102372.03;5024216;28;45401;-70
2022/05/06 06:10:54;;;;;;;;;33.50;29.25;;;;;14.28;62.48;102378.72;5035774;28;45525;-70
2022/05/06 06:13:19;;;;;;;;;43.00;34.25;;;;;14.24;62.90;102377.25;5025035;28;45341;-70
2022/05/06 06:15:45;;;;;;;;;40.25;34.00;;;;;14.24;63.18;102375.41;5035601;28;46108;-70
2022/05/06 06:18:10;;;;;;;;;46.50;37.25;;;;;14.61;61.79;102381.25;5023597;28;45346;-70
2022/05/06 06:20:37;;;;;;;;;45.75;34.00;;;;;14.90;61.06;102375.97;5016731;28;45414;-70
2022/05/06 06:23:03;;;;;;;;;41.25;35.75;;;;;15.35;60.49;102376.41;5025140;28;45578;-70
2022/05/06 06:25:28;;;;;;;;;42.25;35.25;;;;;15.70;59.27;102375.94;5034638;28;45327;-70
2022/05/06 06:27:53;;;;;;;;;37.50;35.25;;;;;15.65;59.32;102382.84;5041532;28;45462;-70
2022/05/06 06:30:19;;;;;;;;;41.50;36.00;;;;;15.50;58.96;102375.00;5034985;28;45375;-71
2022/05/06 06:32:44;;;;;;;;;45.00;35.75;;;;;15.35;59.80;102381.00;5036379;28;45606;-72
2022/05/06 06:35:10;;;;;;;;;39.00;33.50;;;;;15.30;59.92;102384.19;5009232;28;48275;-71
2022/05/06 06:37:35;;;;;;;;;39.75;35.00;;;;;15.23;59.86;102388.47;5018749;28;45228;-72
2022/05/06 06:40:01;;;;;;;;;42.00;33.00;;;;;15.33;60.42;102383.03;5029377;28;45635;-71
2022/05/06 06:42:26;;;;;;;;;34.75;31.75;;;;;15.33;60.16;102383.91;5017904;28;45441;-70
2022/05/06 06:44:52;;;;;;;;;43.00;36.25;;;;;15.21;60.40;102385.00;5027075;28;45455;-71
2022/05/06 06:47:17;;;;;;;;;46.00;36.50;;;;;15.34;60.63;102379.31;5025269;28;45587;-72
2022/05/06 06:49:42;;;;;;;;;44.25;32.50;;;;;15.12;60.92;102394.06;5037173;28;45493;-71
2022/05/06 06:52:08;;;;;;;;;38.25;34.00;;;;;15.16;61.33;102387.31;5033266;28;45300;-71
2022/05/06 06:54:33;;;;;;;;;56.50;43.00;;;;;15.39;60.75;102387.94;5026958;28;46532;-71
2022/05/06 06:56:59;;;;;;;;;45.50;35.50;;;;;15.46;60.60;102381.78;5031104;28;45247;-72
2022/05/06 06:59:25;;;;;;;;;39.00;32.00;;;;;15.40;60.74;102390.56;5006096;28;46707;-71
2022/05/06 07:01:50;;;;;;;;;46.50;36.50;;;;;15.58;59.97;102388.03;5030004;28;45452;-70
2022/05/06 07:04:15;;;;;;;;;34.50;30.25;;;;;15.39;60.72;102383.34;5025200;28;46365;-71
2022/05/06 07:12:09;;;;;;;;;41.50;32.00;;;;;15.99;59.51;102375.09;5026924;28;45403;-71
2022/05/06 07:14:35;;;;;;;;;46.25;36.25;;;;;16.18;58.57;102389.66;5007102;28;47519;-71
2022/05/06 07:17:02;;;;;;;;;51.50;36.25;;;;;16.15;58.58;102387.19;5032761;28;45468;-71
2022/05/06 07:19:28;;;;;;;;;34.25;29.50;;;;;15.71;59.54;102387.75;5028248;28;45343;-71
2022/05/06 07:21:54;;;;;;;;;34.25;31.00;;;;;15.92;59.04;102396.75;5034230;28;45208;-70
2022/05/06 07:24:20;;;;;;;;;34.00;29.25;;;;;15.95;59.61;102397.31;5025220;28;46172;-70
2022/05/06 07:26:46;;;;;;;;;36.50;31.75;;;;;16.07;59.19;102403.50;5034501;28;45243;-70
2022/05/06 07:29:12;;;;;;;;;43.50;35.00;;;;;16.17;59.33;102400.78;5021592;28;45674;-72
2022/05/06 07:31:38;;;;;;;;;35.00;30.75;;;;;16.14;58.53;102399.22;5034650;28;45403;-70
2022/05/06 07:34:03;;;;;;;;;34.75;32.25;;;;;15.91;59.21;102395.00;5029141;28;46635;-72
2022/05/06 07:36:28;;;;;;;;;35.50;31.50;;;;;16.10;59.17;102395.00;5035951;28;45360;-71
2022/05/06 07:38:53;;;;;;;;;35.50;30.50;;;;;16.38;58.47;102404.22;5029729;28;45314;-69
2022/05/06 07:41:19;;;;;;;;;38.75;34.50;;;;;16.56;57.60;102396.13;5032432;28;45372;-71
2022/05/06 07:43:44;;;;;;;;;40.50;35.25;;;;;16.57;58.18;102409.69;5028707;28;45618;-71
2022/05/06 07:46:10;;;;;;;;;36.00;30.00;;;;;16.59;57.52;102401.28;5008884;28;45375;-71
2022/05/06 07:48:37;;;;;;;;;37.75;32.75;;;;;16.63;57.29;102400.03;5023400;28;45419;-71
2022/05/06 07:51:03;;;;;;;;;30.75;26.75;;;;;16.83;57.36;102401.72;5031254;28;45494;-72
2022/05/06 07:53:28;;;;;;;;;26.67;22.67;;;;;16.86;57.18;102392.31;5027483;28;45483;-71
2022/05/06 07:55:53;;;;;;;;;24.75;19.25;;;;;17.13;56.50;102393.22;5029095;28;45247;-71
2022/05/06 07:58:19;;;;;;;;;21.50;21.50;;;;;17.03;57.02;102388.78;5010616;28;45270;-70
2022/05/06 08:00:44;;;;;;;;;31.50;26.25;;;;;17.32;55.72;102383.16;5027197;28;45494;-70
2022/05/06 08:05:57;;;;;;;;;26.25;23.25;;;;;17.27;55.75;102380.00;5026796;28;45258;-72
2022/05/06 08:08:25;;;;;;;;;20.67;19.33;;;;;17.46;54.99;102385.38;5024640;28;45325;-72
2022/05/06 08:10:51;;;;;;;;;18.00;18.00;;;;;17.52;53.79;102376.53;5036158;28;45323;-72
2022/05/06 08:13:17;;;;;;;;;18.33;13.33;;;;;17.70;54.03;102382.94;5022776;28;45387;-72
2022/05/06 08:15:43;;;;;;;;;16.00;16.00;;;;;17.78;53.28;102383.03;5033771;28;45232;-72
2022/05/06 08:18:09;;;;;;;;;17.33;17.33;;;;;17.99;53.20;102387.38;5022976;28;45478;-71
2022/05/06 08:20:35;;;;;;;;;17.33;15.67;;;;;18.26;52.37;102382.63;5036921;28;45598;-72
2022/05/06 08:23:00;;;;;;;;;16.33;14.00;;;;;18.21;51.80;102392.38;5023883;28;45429;-71
2022/05/06 08:25:25;;;;;;;;;17.67;14.33;;;;;18.18;52.15;102384.47;5028794;28;45311;-71
2022/05/06 08:27:51;;;;;;;;;10.00;10.00;;;;;18.59;51.31;102386.53;5040090;28;45822;-72
2022/05/06 08:30:18;;;;;;;;;9.67;9.67;;;;;18.89;50.38;102378.81;5034406;28;45380;-72
2022/05/06 08:32:43;;;;;;;;;9.00;9.00;;;;;19.22;50.18;102377.09;5034115;28;45430;-72
2022/05/06 08:35:09;;;;;;;;;10.33;10.33;;;;;19.22;49.65;102377.09;5028329;28;45399;-72
2022/05/06 08:37:43;;;;;;;;;10.67;8.00;;;;;19.43;48.65;102370.09;5035585;28;45364;-71
2022/05/06 08:40:17;;;;;;;;;10.00;10.00;;;;;19.55;47.40;102367.09;5007933;28;45424;-71
2022/05/06 08:42:42;;;;;;;;;8.00;6.67;;;;;19.12;47.79;102366.22;5031800;28;45290;-72
2022/05/06 08:50:53;;;;;;;;;6.67;6.67;;;;;19.90;46.38;102366.81;5031537;28;45513;-70
2022/05/06 08:53:20;;;;;;;;;15.33;12.33;;;;;19.92;47.19;102362.00;5022509;28;45296;-71
2022/05/06 08:55:47;;;;;;;;;14.67;12.67;;;;;19.53;48.40;102363.63;5026606;28;45395;-71
2022/05/06 08:58:13;;;;;;;;;12.67;10.67;;;;;19.64;47.59;102366.09;5028343;28;45363;-71
2022/05/06 09:00:38;;;;;;;;;12.67;12.67;;;;;20.01;46.72;102357.38;5025776;28;45657;-71
2022/05/06 09:03:03;;;;;;;;;10.67;10.00;;;;;20.55;44.83;102353.06;5027536;28;45364;-70
2022/05/06 09:05:29;;;;;;;;;7.33;7.33;;;;;20.99;45.59;102353.47;5030284;28;45836;-69
2022/05/06 09:08:00;;;;;;;;;8.00;8.00;;;;;21.31;44.73;102358.91;5024579;28;45343;-71
2022/05/06 09:10:26;;;;;;;;;10.33;8.33;;;;;21.52;44.73;102358.28;5031002;28;45252;-71
2022/05/06 09:12:56;;;;;;;;;7.67;6.67;;;;;21.54;42.76;102358.09;5024503;28;46709;-71
2022/05/06 09:18:08;;;;;;;;;12.33;7.67;;;;;21.56;43.03;102367.91;5022422;28;45304;-72
2022/05/06 09:20:34;;;;;;;;;8.00;5.67;;;;;21.70;42.25;102367.16;5036244;28;45480;-70
2022/05/06 09:23:19;;;;;;;;;10.00;10.00;;;;;21.82;41.01;102362.06;5023162;28;47174;-72
2022/05/06 09:25:52;;;;;;;;;10.33;8.67;;;;;21.75;41.33;102358.31;5029801;28;45323;-70
2022/05/06 09:28:23;;;;;;;;;9.33;9.33;;;;;21.83;40.59;102360.16;5038770;28;45382;-70
2022/05/06 09:31:04;;;;;;;;;10.00;10.00;;;;;22.23;40.61;102347.94;5033560;28;45343;-71
2022/05/06 09:33:41;;;;;;;;;11.00;8.67;;;;;22.56;40.70;102359.59;5023978;28;46868;-71
2022/05/06 09:36:32;;;;;;;;;10.33;6.33;;;;;22.21;39.17;102356.44;5012377;28;45892;-72
2022/05/06 09:39:15;;;;;;;;;7.33;7.33;;;;;21.81;40.54;102343.75;5026451;28;45438;-72
2022/05/06 09:41:40;;;;;;;;;7.00;7.00;;;;;21.96;40.00;102332.75;5033571;28;45458;-72
2022/05/06 09:44:08;;;;;;;;;13.67;11.67;;;;;22.21;40.04;102344.53;5024283;28;45394;-72
2022/05/06 09:46:35;;;;;;;;;11.00;9.67;;;;;22.71;40.32;102343.88;5031774;28;45328;-72
2022/05/06 09:49:02;;;;;;;;;11.00;11.00;;;;;22.67;39.16;102332.28;5027054;28;45335;-71
2022/05/06 09:51:29;;;;;;;;;9.33;9.00;;;;;23.10;37.89;102347.22;5034246;28;45406;-71
2022/05/06 09:53:55;;;;;;;;;13.00;12.00;;;;;23.55;36.72;102339.72;5024564;28;46684;-71
2022/05/06 09:56:21;;;;;;;;;12.33;11.67;;;;;23.35;37.17;102328.38;5032783;28;45280;-71
2022/05/06 09:58:46;;;;;;;;;8.33;7.33;;;;;23.83;37.52;102324.03;5025741;28;45495;-72
2022/05/06 10:01:15;;;;;;;;;10.33;8.00;;;;;24.31;37.29;102336.31;5036052;28;45434;-71
2022/05/06 10:03:41;;;;;;;;;11.33;11.33;;;;;24.50;35.69;102326.41;5025617;28;46521;-72
2022/05/06 10:06:09;;;;;;;;;12.33;10.67;;;;;23.91;36.86;102332.25;5036450;28;45352;-71
2022/05/06 10:08:37;;;;;;;;;9.67;9.67;;;;;24.19;35.64;102323.09;5024922;28;45393;-72
2022/05/06 10:11:15;;;;;;;;;8.67;8.67;;;;;23.98;35.73;102323.97;5036912;28;45343;-70
2022/05/06 10:13:44;;;;;;;;;6.67;6.67;;;;;24.10;35.92;102321.53;5015633;28;45743;-69
2022/05/06 10:16:11;;;;;;;;;6.33;6.00;;;;;24.17;35.03;102325.25;5047722;28;45319;-69
2022/05/06 10:18:40;;;;;;;;;11.67;10.33;;;;;24.23;35.10;102335.56;5039500;28;45499;-72
2022/05/06 10:21:10;;;;;;;;;8.33;8.33;;;;;24.36;35.50;102332.91;5021980;28;45508;-68
2022/05/06 10:23:48;;;;;;;;;6.67;6.67;;;;;24.59;34.96;102332.66;5047499;28;45484;-70
2022/05/06 10:26:41;;;;;;;;;8.00;7.67;;;;;24.91;34.15;102322.88;5017465;28;45533;-69
2022/05/06 10:35:02;;;;;;;;;10.67;9.67;;;;;23.70;35.24;102321.13;5041189;28;45339;-72
2022/05/06 10:37:45;;;;;;;;;7.67;7.67;;;;;24.03;35.17;102325.13;5034421;28;45482;-72
2022/05/06 10:40:22;;;;;;;;;8.67;7.00;;;;;24.70;32.90;102319.06;5030629;28;45353;-71
2022/05/06 10:42:48;;;;;;;;;6.33;6.33;;;;;25.48;34.01;102311.38;5036086;28;45418;-71
2022/05/06 10:45:24;;;;;;;;;9.33;9.33;;;;;25.91;32.75;102309.16;5016093;28;46971;-71
2022/05/06 10:47:52;;;;;;;;;11.00;10.00;;;;;25.64;31.76;102310.16;5031576;28;45402;-71
2022/05/06 10:50:20;;;;;;;;;12.67;12.67;;;;;25.12;33.01;102306.09;5010730;28;44851;-71
2022/05/06 10:52:47;;;;;;;;;15.33;11.00;;;;;24.89;33.07;102311.91;5030933;28;45407;-71
2022/05/06 10:55:14;;;;;;;;;11.00;11.00;;;;;24.72;33.33;102303.03;5026955;28;46304;-71
2022/05/06 10:57:48;;;;;;;;;10.00;7.00;;;;;24.83;34.45;102305.25;5028850;28;45374;-71
2022/05/06 11:00:14;;;;;;;;;10.67;9.67;;;;;25.25;32.56;102306.13;5008980;28;45415;-71
2022/05/06 11:02:40;;;;;;;;;8.00;7.67;;;;;25.41;32.35;102310.47;5017908;28;45689;-71
2022/05/06 11:05:07;;;;;;;;;8.00;8.00;;;;;25.50;31.79;102309.22;5037360;28;45730;-71
2022/05/06 11:07:34;;;;;;;;;6.33;6.33;;;;;26.17;31.02;102289.66;5029689;28;45390;-71
2022/05/06 11:10:08;;;;;;;;;8.67;8.67;;;;;26.43;31.79;102290.75;5028410;28;45430;-71
2022/05/06 11:12:54;;;;;;;;;8.67;8.33;;;;;26.01;30.69;102298.41;5029885;28;45431;-71
2022/05/06 11:15:32;;;;;;;;;7.00;7.00;;;;;26.21;30.37;102293.75;5030860;28;46249;-71
2022/05/06 11:18:00;;;;;;;;;10.33;10.00;;;;;27.01;30.20;102287.03;5025672;28;45485;-71
2022/05/06 11:20:36;;;;;;;;;8.67;8.00;;;;;27.30;29.14;102274.44;5029957;28;45491;-71
2022/05/06 11:23:09;;;;;;;;;6.67;6.67;;;;;26.74;29.26;102275.03;5037381;28;45605;-71
2022/05/06 11:25:41;;;;;;;;;10.67;7.33;;;;;26.45;30.00;102280.22;5029097;28;45462;-71
2022/05/06 11:28:14;;;;;;;;;9.00;9.00;;;;;25.92;30.44;102275.53;5029990;28;45242;-70
2022/05/06 11:30:45;;;;;;;;;6.00;6.00;;;;;26.09;30.08;102275.06;5015584;28;45463;-71
2022/05/06 11:33:24;;;;;;;;;8.33;7.00;;;;;25.63;29.69;102280.63;5034810;28;45521;-71
2022/05/06 11:36:01;;;;;;;;;8.33;6.67;;;;;26.15;29.76;102263.97;5030761;28;45439;-71
2022/05/06 11:38:32;;;;;;;;;5.00;5.00;;;;;26.84;28.85;102277.38;5025334;28;45428;-71
2022/05/06 11:41:11;;;;;;;;;5.67;5.67;;;;;27.45;28.51;102260.19;5031951;28;45609;-71
2022/05/06 11:43:38;;;;;;;;;7.67;5.67;;;;;26.49;29.75;102267.59;5028690;28;45353;-71
2022/05/06 11:48:48;;;;;;;;;7.33;7.33;;;;;26.62;30.22;102264.78;5026076;28;45389;-71
2022/05/06 11:51:26;;;;;;;;;5.00;5.00;;;;;27.53;29.07;102262.75;5030298;28;45541;-71
2022/05/06 11:53:53;;;;;;;;;5.00;5.00;;;;;27.20;28.18;102262.03;5025112;28;45505;-70
2022/05/06 11:56:23;;;;;;;;;6.33;6.33;;;;;27.47;27.47;102263.59;5010251;28;46222;-70